Czyste, bezchmurne niebo
Czyste, bezchmurne niebo
Czyste, bezchmurne niebo
Czyste, bezchmurne niebo
Czyste, bezchmurne niebo
Czyste, bezchmurne niebo
Czyste, bezchmurne niebo
(°C)
16°
16°
16°
16°
15°
14°
14°
(°C)
13°
13°
13°
13°
12°
12°
12°
WNW
WNW
WNW
WNW
WNW
NW
NW
(km/h)
11-13
12-17
12-20
11-21
11-20
10-18
8-15
(mm)
0
0
0
0
0
0
0
(%)
2
1
1
1
0
0
0

Wysokość słońca

/ 33.8°
sun-icon
UV 3
06:37
16:44
Ubywający Księżyc garbaty (195°)
17:57
08:11

METAR dla San Diego (KSAN)

Czas Warunki Temperatura/
Punkt rosy
Wiatr Widzialność Pogoda Chmury Ciśn. atm. Zmień Surowy
VFR 15.6°C / 8.3°C 310º 6kt >10km - Few Clouds 2500ft 1022 - KSAN 091851Z 31006KT 10SM FEW025 16/08 A3020 RMK AO2 SLP224 T01560083
VFR 13.3°C / 5.6°C variable 3kt >10km - Clear 1023 - KSAN 091751Z VRB03KT 10SM CLR 13/06 A3021 RMK AO2 SLP231 T01330056 10133 20061 51005
VFR 12.2°C / 5.6°C variable 0kt >10km - Few Clouds 2500ft 1023 - KSAN 091651Z 00000KT 10SM FEW025 12/06 A3021 RMK AO2 SLP230 T01220056
VFR 10.6°C / 4.4°C variable 0kt >10km - Few Clouds 2500ft 1022 - KSAN 091551Z 00000KT 10SM FEW025 11/04 A3020 RMK AO2 SLP227 T01060044
VFR 7.2°C / 3.9°C variable 0kt >10km - Few Clouds 2500ft 1022 - KSAN 091451Z 00000KT 10SM FEW025 07/04 A3020 RMK AO2 SLP226 T00720039 53003
VFR 6.7°C / 3.9°C variable 0kt >10km - Clear 1022 - KSAN 091351Z 00000KT 10SM CLR 07/04 A3019 RMK AO2 SLP222 T00670039
VFR 7.2°C / 4.4°C variable 0kt >10km - Few Clouds 2500ft 1022 - KSAN 091251Z 00000KT 10SM FEW025 07/04 A3018 RMK AO2 SLP220 T00720044
VFR 7.2°C / 4.4°C variable 0kt >10km - Few Clouds 2500ft
Scattered Clouds 25000ft
1022 - KSAN 091151Z 00000KT 10SM FEW025 SCT250 07/04 A3019 RMK AO2 SLP223 T00720044 10111 20072 56004
VFR 7.8°C / 5.6°C variable 0kt >10km - Few Clouds 2500ft
Scattered Clouds 25000ft
1022 - KSAN 091051Z 00000KT 10SM FEW025 SCT250 08/06 A3019 RMK AO2 SLP223 T00780056
VFR 8.3°C / 5.6°C 60º 3kt >10km - Few Clouds 2500ft 1022 - KSAN 090951Z 06003KT 10SM FEW025 08/06 A3020 RMK AO2 SLP226 T00830056
VFR 8.9°C / 6.1°C variable 0kt >10km - Few Clouds 2500ft 1022 - KSAN 090851Z 00000KT 10SM FEW025 09/06 A3020 RMK AO2 SLP227 T00890061 58011
VFR 9.4°C / 6.7°C variable 0kt >10km - Scattered Clouds 2500ft 1023 - KSAN 090751Z 00000KT 10SM SCT025 09/07 A3023 RMK AO2 SLP234 T00940067 401670067
VFR 10°C / 7.2°C variable 0kt >10km - Few Clouds 2500ft 1023 - KSAN 090651Z 00000KT 10SM FEW025 10/07 A3023 RMK AO2 SLP236 T01000072
VFR 11.1°C / 7.8°C variable 0kt >10km - Few Clouds 2500ft 1023 - KSAN 090551Z 00000KT 10SM FEW025 11/08 A3024 RMK AO2 SLP238 T01110078 10156 20106 51002
VFR 11.1°C / 7.8°C variable 0kt >10km - Few Clouds 2500ft
Few Clouds 25000ft
1023 - KSAN 090451Z 00000KT 10SM FEW025 FEW250 11/08 A3023 RMK AO2 SLP237 T01110078
VFR 12.8°C / 8.3°C variable 0kt >10km - Few Clouds 2500ft
Few Clouds 25000ft
1023 - KSAN 090351Z 00000KT 10SM FEW025 FEW250 13/08 A3024 RMK AO2 SLP238 T01280083
VFR 13.3°C / 8.9°C 340º 5kt >10km - Scattered Clouds 2500ft 1023 - KSAN 090251Z 34005KT 10SM SCT025 13/09 A3023 RMK AO2 SLP236 T01330089 53005
VFR 13.9°C / 8.3°C 340º 6kt >10km - Few Clouds 2500ft
Few Clouds 25000ft
1023 - KSAN 090151Z 34006KT 10SM FEW025 FEW250 14/08 A3022 RMK AO2 SLP232 T01390083
VFR 13.9°C / 7.8°C 330º 7kt >10km - Few Clouds 2500ft
Few Clouds 25000ft
1023 - KSAN 090051Z 33007KT 10SM FEW025 FEW250 14/08 A3022 RMK AO2 SLP231 T01390078
VFR 15.6°C / 7.8°C 310º 10kt >10km - Few Clouds 2500ft
Few Clouds 25000ft
1023 - KSAN 082351Z 31010KT 10SM FEW025 FEW250 16/08 A3021 RMK AO2 SLP231 T01560078 10167 20139 56014
VFR 16.1°C / 7.8°C 330º 8kt >10km - Few Clouds 2500ft
Few Clouds 25000ft
1023 - KSAN 082251Z 33008KT 10SM FEW025 FEW250 16/08 A3022 RMK AO2 SLP233 T01610078
VFR 16.1°C / 8.3°C 320º 11kt Gust 17kt >10km - Few Clouds 2500ft
Few Clouds 15000ft
1023 - KSAN 082151Z 32011G17KT 10SM FEW025 FEW150 16/08 A3023 RMK AO2 SLP237 T01610083
VFR 16.1°C / 7.2°C 310º 10kt >10km - Few Clouds 2500ft 1024 - KSAN 082051Z 31010KT 10SM FEW025 16/07 A3026 RMK AO2 SLP245 T01610072 58022
VFR 16.7°C / 5.6°C 320º 10kt Gust 15kt >10km - Few Clouds 2500ft 1025 - KSAN 081951Z 32010G15KT 10SM FEW025 17/06 A3028 RMK AO2 SLP251 T01670056

VFR

15.6°C / 8.3°C

[Więcej]
Wiatr 310º 6kt
Widzialność >10km
Pogoda -
Chmury Few Clouds 2500ft
Ciśn. atm. 1022
Zmień -
Surowy KSAN 091851Z 31006KT 10SM FEW025 16/08 A3020 RMK AO2 SLP224 T01560083

VFR

13.3°C / 5.6°C

[Więcej]
Wiatr variable 3kt
Widzialność >10km
Pogoda -
Chmury Clear
Ciśn. atm. 1023
Zmień -
Surowy KSAN 091751Z VRB03KT 10SM CLR 13/06 A3021 RMK AO2 SLP231 T01330056 10133 20061 51005

VFR

12.2°C / 5.6°C

[Więcej]
Wiatr variable 0kt
Widzialność >10km
Pogoda -
Chmury Few Clouds 2500ft
Ciśn. atm. 1023
Zmień -
Surowy KSAN 091651Z 00000KT 10SM FEW025 12/06 A3021 RMK AO2 SLP230 T01220056

VFR

10.6°C / 4.4°C

[Więcej]
Wiatr variable 0kt
Widzialność >10km
Pogoda -
Chmury Few Clouds 2500ft
Ciśn. atm. 1022
Zmień -
Surowy KSAN 091551Z 00000KT 10SM FEW025 11/04 A3020 RMK AO2 SLP227 T01060044

VFR

7.2°C / 3.9°C

[Więcej]
Wiatr variable 0kt
Widzialność >10km
Pogoda -
Chmury Few Clouds 2500ft
Ciśn. atm. 1022
Zmień -
Surowy KSAN 091451Z 00000KT 10SM FEW025 07/04 A3020 RMK AO2 SLP226 T00720039 53003

VFR

6.7°C / 3.9°C

[Więcej]
Wiatr variable 0kt
Widzialność >10km
Pogoda -
Chmury Clear
Ciśn. atm. 1022
Zmień -
Surowy KSAN 091351Z 00000KT 10SM CLR 07/04 A3019 RMK AO2 SLP222 T00670039

VFR

7.2°C / 4.4°C

[Więcej]
Wiatr variable 0kt
Widzialność >10km
Pogoda -
Chmury Few Clouds 2500ft
Ciśn. atm. 1022
Zmień -
Surowy KSAN 091251Z 00000KT 10SM FEW025 07/04 A3018 RMK AO2 SLP220 T00720044

VFR

7.2°C / 4.4°C

[Więcej]
Wiatr variable 0kt
Widzialność >10km
Pogoda -
Chmury Few Clouds 2500ft
Scattered Clouds 25000ft
Ciśn. atm. 1022
Zmień -
Surowy KSAN 091151Z 00000KT 10SM FEW025 SCT250 07/04 A3019 RMK AO2 SLP223 T00720044 10111 20072 56004

VFR

7.8°C / 5.6°C

[Więcej]
Wiatr variable 0kt
Widzialność >10km
Pogoda -
Chmury Few Clouds 2500ft
Scattered Clouds 25000ft
Ciśn. atm. 1022
Zmień -
Surowy KSAN 091051Z 00000KT 10SM FEW025 SCT250 08/06 A3019 RMK AO2 SLP223 T00780056

VFR

8.3°C / 5.6°C

[Więcej]
Wiatr 60º 3kt
Widzialność >10km
Pogoda -
Chmury Few Clouds 2500ft
Ciśn. atm. 1022
Zmień -
Surowy KSAN 090951Z 06003KT 10SM FEW025 08/06 A3020 RMK AO2 SLP226 T00830056

VFR

8.9°C / 6.1°C

[Więcej]
Wiatr variable 0kt
Widzialność >10km
Pogoda -
Chmury Few Clouds 2500ft
Ciśn. atm. 1022
Zmień -
Surowy KSAN 090851Z 00000KT 10SM FEW025 09/06 A3020 RMK AO2 SLP227 T00890061 58011

VFR

9.4°C / 6.7°C

[Więcej]
Wiatr variable 0kt
Widzialność >10km
Pogoda -
Chmury Scattered Clouds 2500ft
Ciśn. atm. 1023
Zmień -
Surowy KSAN 090751Z 00000KT 10SM SCT025 09/07 A3023 RMK AO2 SLP234 T00940067 401670067

VFR

10°C / 7.2°C

[Więcej]
Wiatr variable 0kt
Widzialność >10km
Pogoda -
Chmury Few Clouds 2500ft
Ciśn. atm. 1023
Zmień -
Surowy KSAN 090651Z 00000KT 10SM FEW025 10/07 A3023 RMK AO2 SLP236 T01000072

VFR

11.1°C / 7.8°C

[Więcej]
Wiatr variable 0kt
Widzialność >10km
Pogoda -
Chmury Few Clouds 2500ft
Ciśn. atm. 1023
Zmień -
Surowy KSAN 090551Z 00000KT 10SM FEW025 11/08 A3024 RMK AO2 SLP238 T01110078 10156 20106 51002

VFR

11.1°C / 7.8°C

[Więcej]
Wiatr variable 0kt
Widzialność >10km
Pogoda -
Chmury Few Clouds 2500ft
Few Clouds 25000ft
Ciśn. atm. 1023
Zmień -
Surowy KSAN 090451Z 00000KT 10SM FEW025 FEW250 11/08 A3023 RMK AO2 SLP237 T01110078

VFR

12.8°C / 8.3°C

[Więcej]
Wiatr variable 0kt
Widzialność >10km
Pogoda -
Chmury Few Clouds 2500ft
Few Clouds 25000ft
Ciśn. atm. 1023
Zmień -
Surowy KSAN 090351Z 00000KT 10SM FEW025 FEW250 13/08 A3024 RMK AO2 SLP238 T01280083

VFR

13.3°C / 8.9°C

[Więcej]
Wiatr 340º 5kt
Widzialność >10km
Pogoda -
Chmury Scattered Clouds 2500ft
Ciśn. atm. 1023
Zmień -
Surowy KSAN 090251Z 34005KT 10SM SCT025 13/09 A3023 RMK AO2 SLP236 T01330089 53005

VFR

13.9°C / 8.3°C

[Więcej]
Wiatr 340º 6kt
Widzialność >10km
Pogoda -
Chmury Few Clouds 2500ft
Few Clouds 25000ft
Ciśn. atm. 1023
Zmień -
Surowy KSAN 090151Z 34006KT 10SM FEW025 FEW250 14/08 A3022 RMK AO2 SLP232 T01390083

VFR

13.9°C / 7.8°C

[Więcej]
Wiatr 330º 7kt
Widzialność >10km
Pogoda -
Chmury Few Clouds 2500ft
Few Clouds 25000ft
Ciśn. atm. 1023
Zmień -
Surowy KSAN 090051Z 33007KT 10SM FEW025 FEW250 14/08 A3022 RMK AO2 SLP231 T01390078

VFR

15.6°C / 7.8°C

[Więcej]
Wiatr 310º 10kt
Widzialność >10km
Pogoda -
Chmury Few Clouds 2500ft
Few Clouds 25000ft
Ciśn. atm. 1023
Zmień -
Surowy KSAN 082351Z 31010KT 10SM FEW025 FEW250 16/08 A3021 RMK AO2 SLP231 T01560078 10167 20139 56014

VFR

16.1°C / 7.8°C

[Więcej]
Wiatr 330º 8kt
Widzialność >10km
Pogoda -
Chmury Few Clouds 2500ft
Few Clouds 25000ft
Ciśn. atm. 1023
Zmień -
Surowy KSAN 082251Z 33008KT 10SM FEW025 FEW250 16/08 A3022 RMK AO2 SLP233 T01610078

VFR

16.1°C / 8.3°C

[Więcej]
Wiatr 320º 11kt Gust 17kt
Widzialność >10km
Pogoda -
Chmury Few Clouds 2500ft
Few Clouds 15000ft
Ciśn. atm. 1023
Zmień -
Surowy KSAN 082151Z 32011G17KT 10SM FEW025 FEW150 16/08 A3023 RMK AO2 SLP237 T01610083

VFR

16.1°C / 7.2°C

[Więcej]
Wiatr 310º 10kt
Widzialność >10km
Pogoda -
Chmury Few Clouds 2500ft
Ciśn. atm. 1024
Zmień -
Surowy KSAN 082051Z 31010KT 10SM FEW025 16/07 A3026 RMK AO2 SLP245 T01610072 58022

VFR

16.7°C / 5.6°C

[Więcej]
Wiatr 320º 10kt Gust 15kt
Widzialność >10km
Pogoda -
Chmury Few Clouds 2500ft
Ciśn. atm. 1025
Zmień -
Surowy KSAN 081951Z 32010G15KT 10SM FEW025 17/06 A3028 RMK AO2 SLP251 T01670056

TAF dla San Diego (KSAN)

From till


From till Wind variable 4kt. Visibility 10km or more. Few Clouds 2500ft.
From till Wind 300º 9kt. Visibility 10km or more. Few Clouds 3000ft.
From till Wind variable 4kt. Visibility 10km or more. Scattered Clouds 2500ft.
Temporarly from till Broken Clouds 2500ft.
From till Wind 280º 9kt. Visibility 10km or more. Few Clouds 2500ft.

Surowy: KSAN 091727Z 0918/1024 VRB04KT P6SM FEW025 FM092100 30009KT P6SM FEW030 FM100130 VRB04KT P6SM SCT025 TEMPO 1012/1015 BKN025 FM102100 28009KT P6SM FEW025

Radar i prognoza opadów na teraz dla San Diego

Mżawka
Lekkie
Umiarkowane
Intensywne
Bardzo Intensywne
Grad

Wskaźnik lokalizacji jest umieszczony na San Diego. Animacja przedstawia radar opadów dla ostatniej godziny, jak również 1h prognozę pogody. Mżawka i lekkie opady mogą być niewidoczne na radarze. Intensywność opadów jest oznaczona kolorami od jasnoniebieskiego do ciemnofioletowego.

Aktualne zdjęcia satelitarne dla San Diego, USA

Wskaźnik lokalizacji znajduje się na San Diego. [Więcej]

Obraz satelitarny w czasie rzeczywistym łączy światło widzialne w ciągu dnia z promieniowaniem podczerwonym w nocy. W nocy obraz nie jest ciemny, ponieważ promieniowanie podczerwone może wykrywać różnice temperatur. Niestety niskie chmury i mgłę trudno odróżnić od temperatury gruntu, przez co mogą być prawie niewidoczne w nocy. Zdjęcia satelitarne Meteosat dla Europy są aktualizowane w czasie rzeczywistym co 5 minut. Obrazy GOES-16/GOES-17 (Ameryka Północna i Południowa) oraz Himawari (Azja) są aktualizowane co 10 minut.

Powrót do góry